createdAt,value
2019-02-23T00:00:32.109Z,1.1
2019-02-23T00:01:39.306Z,1.1
2019-02-23T00:02:46.228Z,1.1
2019-02-23T00:03:53.425Z,1.1
2019-02-23T00:05:00.366Z,1.1
2019-02-23T00:06:07.550Z,1.1
2019-02-23T00:07:14.470Z,1
2019-02-23T00:08:21.666Z,1
2019-02-23T00:09:28.878Z,1
2019-02-23T00:10:36.070Z,0.9
2019-02-23T00:11:43.261Z,0.9
2019-02-23T00:12:50.460Z,0.8
2019-02-23T00:13:57.656Z,0.8
2019-02-23T00:15:04.573Z,0.8
2019-02-23T00:16:11.768Z,0.8
2019-02-23T00:17:18.969Z,0.7
2019-02-23T00:18:26.164Z,0.7
2019-02-23T00:19:33.084Z,0.6
2019-02-23T00:20:40.281Z,0.6
2019-02-23T00:21:47.203Z,0.5
2019-02-23T00:22:54.122Z,0.5
2019-02-23T00:24:01.047Z,0.5
2019-02-23T00:25:08.241Z,0.5
2019-02-23T00:26:15.439Z,0.6
2019-02-23T00:27:22.631Z,0.6
2019-02-23T00:28:29.827Z,0.5
2019-02-23T00:29:37.018Z,0.5
2019-02-23T00:30:44.219Z,0.5
2019-02-23T00:31:51.409Z,0.4
2019-02-23T00:32:58.603Z,0.4
2019-02-23T00:34:05.795Z,0.4
2019-02-23T00:35:12.988Z,0.4
2019-02-23T00:36:20.183Z,0.4
2019-02-23T00:37:27.377Z,0.5
2019-02-23T00:38:34.577Z,0.5
2019-02-23T00:39:41.770Z,0.4
2019-02-23T00:40:48.686Z,0.4
2019-02-23T00:41:55.612Z,0.4
2019-02-23T00:43:02.808Z,0.3
2019-02-23T00:44:09.999Z,0.3
2019-02-23T00:45:17.196Z,0.3
2019-02-23T00:46:24.399Z,0.3
2019-02-23T00:47:31.317Z,0.2
2019-02-23T00:48:38.512Z,0.2
2019-02-23T00:49:45.700Z,0.1
2019-02-23T00:50:52.895Z,0.1
2019-02-23T00:52:00.086Z,0
2019-02-23T00:53:07.292Z,0
2019-02-23T00:54:14.213Z,-0.1
2019-02-23T00:55:21.134Z,-0.1
2019-02-23T00:56:28.329Z,-0.1
2019-02-23T00:57:35.252Z,-0.1
2019-02-23T00:58:42.482Z,-0.2
2019-02-23T00:59:49.403Z,-0.2
2019-02-23T01:00:56.601Z,-0.2
2019-02-23T01:02:03.535Z,-0.2
2019-02-23T01:03:10.728Z,-0.2
2019-02-23T01:04:17.921Z,-0.3
2019-02-23T01:05:25.112Z,-0.3
2019-02-23T01:06:32.308Z,-0.3
2019-02-23T01:07:39.505Z,-0.4
2019-02-23T01:08:46.696Z,-0.4
2019-02-23T01:09:53.892Z,-0.4
2019-02-23T01:11:01.083Z,-0.4
2019-02-23T01:12:08.235Z,-0.4
2019-02-23T01:13:15.211Z,-0.4
2019-02-23T01:14:22.403Z,-0.4
2019-02-23T01:15:29.604Z,-0.5
2019-02-23T01:16:36.791Z,-0.5
2019-02-23T01:17:43.984Z,-0.5
2019-02-23T01:18:51.174Z,-0.6
2019-02-23T01:19:58.366Z,-0.6
2019-02-23T01:21:05.559Z,-0.7
2019-02-23T01:22:12.761Z,-0.7
2019-02-23T01:23:19.673Z,-0.7
2019-02-23T01:24:26.602Z,-0.7
2019-02-23T01:25:33.530Z,-0.7
2019-02-23T01:26:40.720Z,-0.7
2019-02-23T01:27:47.914Z,-0.7
2019-02-23T01:28:55.144Z,-0.8
2019-02-23T01:30:02.341Z,-0.7
2019-02-23T01:31:09.532Z,-0.7
2019-02-23T01:32:16.178Z,-0.8
2019-02-23T01:33:23.370Z,-0.7
2019-02-23T01:34:30.560Z,-0.6
2019-02-23T01:35:37.752Z,-0.6
2019-02-23T01:36:44.673Z,-0.7
2019-02-23T01:37:51.863Z,-0.7
2019-02-23T01:38:59.057Z,-0.7
2019-02-23T01:40:06.258Z,-0.7
2019-02-23T01:41:13.440Z,-0.7
2019-02-23T01:42:20.637Z,-0.8
2019-02-23T01:43:27.828Z,-0.8
2019-02-23T01:44:34.752Z,-0.8
2019-02-23T01:45:43.204Z,-0.8
2019-02-23T01:46:50.402Z,-0.7
2019-02-23T01:47:57.593Z,-0.8
2019-02-23T01:49:04.800Z,-0.8
2019-02-23T01:50:11.980Z,-0.8
2019-02-23T01:51:19.292Z,-0.8
2019-02-23T01:52:26.491Z,-0.9
2019-02-23T01:53:33.411Z,-0.9
2019-02-23T01:54:40.666Z,-0.8
2019-02-23T01:55:47.855Z,-0.8
2019-02-23T01:56:54.768Z,-0.9
2019-02-23T01:58:01.687Z,-0.9
2019-02-23T01:59:08.875Z,-1
2019-02-23T02:00:16.076Z,-1
2019-02-23T02:01:23.269Z,-1
2019-02-23T02:02:30.463Z,-1
2019-02-23T02:03:37.384Z,-1
2019-02-23T02:04:44.573Z,-1
2019-02-23T02:05:51.762Z,-1
2019-02-23T02:06:58.958Z,-1
2019-02-23T02:08:05.871Z,-1
2019-02-23T02:09:12.795Z,-1
2019-02-23T02:10:19.988Z,-1.1
2019-02-23T02:11:27.195Z,-1
2019-02-23T02:12:34.386Z,-1.1
2019-02-23T02:13:41.580Z,-1.1
2019-02-23T02:14:48.823Z,-1.1
2019-02-23T02:15:55.814Z,-1
2019-02-23T02:17:03.002Z,-1
2019-02-23T02:18:10.190Z,-0.9
2019-02-23T02:19:17.112Z,-0.9
2019-02-23T02:20:23.844Z,-1
2019-02-23T02:21:31.037Z,-1
2019-02-23T02:22:38.233Z,-1.1
2019-02-23T02:23:45.430Z,-1.1
2019-02-23T02:24:52.549Z,-1.1
2019-02-23T02:25:59.468Z,-1.1
2019-02-23T02:27:06.669Z,-1.2
2019-02-23T02:28:13.589Z,-1.2
2019-02-23T02:29:20.506Z,-1.2
2019-02-23T02:30:27.710Z,-1.2
2019-02-23T02:31:34.904Z,-1.3
2019-02-23T02:32:42.115Z,-1.3
2019-02-23T02:33:49.307Z,-1.3
2019-02-23T02:34:56.494Z,-1.4
2019-02-23T02:36:03.416Z,-1.4
2019-02-23T02:37:10.335Z,-1.4
2019-02-23T02:38:17.536Z,-1.4
2019-02-23T02:39:24.729Z,-1.4
2019-02-23T02:40:31.934Z,-1.5
2019-02-23T02:41:38.853Z,-1.5
2019-02-23T02:42:46.045Z,-1.5
2019-02-23T02:43:53.233Z,-1.5
2019-02-23T02:45:00.428Z,-1.5
2019-02-23T02:46:07.351Z,-1.6
2019-02-23T02:47:14.539Z,-1.7
2019-02-23T02:48:21.728Z,-1.7
2019-02-23T02:49:28.917Z,-1.7
2019-02-23T02:50:36.181Z,-1.7
2019-02-23T02:51:43.385Z,-1.7
2019-02-23T02:52:50.577Z,-1.8
2019-02-23T02:53:57.770Z,-1.8
2019-02-23T02:55:04.989Z,-1.7
2019-02-23T02:56:11.912Z,-1.7
2019-02-23T02:57:19.102Z,-1.7
2019-02-23T02:58:26.296Z,-1.7
2019-02-23T02:59:33.218Z,-1.7
2019-02-23T03:00:40.411Z,-1.7
2019-02-23T03:01:47.599Z,-1.7
2019-02-23T03:02:54.518Z,-1.7
2019-02-23T03:04:01.712Z,-1.7
2019-02-23T03:05:08.908Z,-1.7
2019-02-23T03:06:16.099Z,-1.7
2019-02-23T03:07:23.293Z,-1.7
2019-02-23T03:08:30.544Z,-1.8
2019-02-23T03:09:37.732Z,-1.8
2019-02-23T03:10:44.926Z,-1.8
2019-02-23T03:11:52.126Z,-1.9
2019-02-23T03:12:59.310Z,-1.9
2019-02-23T03:14:06.502Z,-1.9
2019-02-23T03:15:13.692Z,-1.9
2019-02-23T03:16:20.889Z,-2
2019-02-23T03:17:28.085Z,-2
2019-02-23T03:18:34.741Z,-2
2019-02-23T03:19:41.936Z,-2.1
2019-02-23T03:20:49.128Z,-2.1
2019-02-23T03:21:56.317Z,-2.1
2019-02-23T03:23:03.505Z,-2.2
2019-02-23T03:24:10.152Z,-2.1
2019-02-23T03:25:17.340Z,-2
2019-02-23T03:26:24.259Z,-2
2019-02-23T03:27:31.454Z,-2
2019-02-23T03:28:38.649Z,-2
2019-02-23T03:29:45.298Z,-1.9
2019-02-23T03:30:52.489Z,-1.9
2019-02-23T03:31:59.685Z,-2
2019-02-23T03:33:06.889Z,-2
2019-02-23T03:34:14.147Z,-2.1
2019-02-23T03:35:21.407Z,-2.1
2019-02-23T03:36:28.595Z,-2
2019-02-23T03:37:35.788Z,-2
2019-02-23T03:38:42.984Z,-2
2019-02-23T03:39:49.628Z,-2
2019-02-23T03:40:56.553Z,-2
2019-02-23T03:42:03.471Z,-2
2019-02-23T03:43:10.672Z,-2.1
2019-02-23T03:44:17.865Z,-2.1
2019-02-23T03:45:25.055Z,-2.1
2019-02-23T03:46:32.249Z,-2.1
2019-02-23T03:47:39.165Z,-2.2
2019-02-23T03:48:46.375Z,-2.2
2019-02-23T03:49:53.565Z,-2.1
2019-02-23T03:51:00.757Z,-2
2019-02-23T03:52:07.952Z,-1.9
2019-02-23T03:53:14.875Z,-1.9
2019-02-23T03:54:22.069Z,-1.9
2019-02-23T03:55:28.723Z,-2
2019-02-23T03:56:35.637Z,-2
2019-02-23T03:57:42.560Z,-1.9
2019-02-23T03:58:49.758Z,-1.8
2019-02-23T03:59:56.948Z,-1.8
2019-02-23T04:01:03.864Z,-1.9
2019-02-23T04:02:11.057Z,-1.9
2019-02-23T04:03:18.259Z,-1.9
2019-02-23T04:04:25.473Z,-2
2019-02-23T04:05:32.655Z,-2
2019-02-23T04:06:39.955Z,-2.1
2019-02-23T04:07:47.148Z,-2
2019-02-23T04:08:54.076Z,-2.1
2019-02-23T04:10:01.079Z,-2.1
2019-02-23T04:11:08.021Z,-2.2
2019-02-23T04:12:15.224Z,-2.2
2019-02-23T04:13:22.418Z,-2.3
2019-02-23T04:14:29.607Z,-2.2
2019-02-23T04:15:36.536Z,-2.3
2019-02-23T04:16:43.716Z,-2.4
2019-02-23T04:17:50.638Z,-2.4
2019-02-23T04:18:57.828Z,-2.4
2019-02-23T04:20:05.018Z,-2.4
2019-02-23T04:21:11.670Z,-2.4
2019-02-23T04:22:18.600Z,-2.4
2019-02-23T04:23:25.792Z,-2.4
2019-02-23T04:24:32.992Z,-2.3
2019-02-23T04:25:40.050Z,-2.3
2019-02-23T04:26:47.238Z,-2.3
2019-02-23T04:27:54.435Z,-2.2
2019-02-23T04:29:01.640Z,-2.3
2019-02-23T04:30:08.281Z,-2.3
2019-02-23T04:31:15.200Z,-2.3
2019-02-23T04:32:22.397Z,-2.3
2019-02-23T04:33:29.590Z,-2.3
2019-02-23T04:34:36.783Z,-2.3
2019-02-23T04:35:46.706Z,-2.3
2019-02-23T04:36:53.951Z,-2.4
2019-02-23T04:38:00.875Z,-2.4
2019-02-23T04:39:08.089Z,-2.5
2019-02-23T04:40:14.728Z,-2.5
2019-02-23T04:41:21.926Z,-2.5
2019-02-23T04:42:29.121Z,-2.5
2019-02-23T04:43:36.040Z,-2.5
2019-02-23T04:44:43.233Z,-2.6
2019-02-23T04:45:50.418Z,-2.6
2019-02-23T04:46:57.610Z,-2.6
2019-02-23T04:48:04.805Z,-2.6
2019-02-23T04:49:11.996Z,-2.7
2019-02-23T04:50:19.189Z,-2.7
2019-02-23T04:51:26.381Z,-2.8
2019-02-23T04:52:33.575Z,-2.8
2019-02-23T04:53:40.766Z,-2.9
2019-02-23T04:54:47.683Z,-2.9
2019-02-23T04:55:54.988Z,-2.9
2019-02-23T04:57:01.914Z,-2.9
2019-02-23T04:58:09.206Z,-2.9
2019-02-23T04:59:16.395Z,-2.9
2019-02-23T05:00:23.594Z,-2.9
2019-02-23T05:01:30.582Z,-2.9
2019-02-23T05:02:37.778Z,-2.9
2019-02-23T05:03:44.973Z,-2.9
2019-02-23T05:04:52.169Z,-2.9
2019-02-23T05:05:59.373Z,-2.9
2019-02-23T05:07:06.570Z,-2.8
2019-02-23T05:08:13.758Z,-2.9
2019-02-23T05:09:20.676Z,-3
2019-02-23T05:10:27.868Z,-3.1
2019-02-23T05:11:35.060Z,-3.1
2019-02-23T05:12:42.249Z,-3.1
2019-02-23T05:13:49.442Z,-3
2019-02-23T05:14:56.630Z,-3
2019-02-23T05:16:03.823Z,-2.9
2019-02-23T05:17:11.017Z,-2.9
2019-02-23T05:18:18.274Z,-2.8
2019-02-23T05:19:25.189Z,-2.9
2019-02-23T05:20:32.377Z,-2.8
2019-02-23T05:21:39.575Z,-2.8
2019-02-23T05:22:46.782Z,-2.9
2019-02-23T05:23:53.968Z,-2.9
2019-02-23T05:25:00.888Z,-2.9
2019-02-23T05:26:08.088Z,-2.9
2019-02-23T05:27:15.004Z,-3
2019-02-23T05:28:21.920Z,-3
2019-02-23T05:29:29.180Z,-3
2019-02-23T05:30:36.092Z,-3.1
2019-02-23T05:31:43.279Z,-3.1
2019-02-23T05:32:50.471Z,-3
2019-02-23T05:33:57.663Z,-3
2019-02-23T05:35:04.851Z,-3
2019-02-23T05:36:12.038Z,-3
2019-02-23T05:37:19.230Z,-3.1
2019-02-23T05:38:26.416Z,-3.1
2019-02-23T05:39:33.614Z,-3.1
2019-02-23T05:40:40.803Z,-3.2
2019-02-23T05:41:47.998Z,-3.2
2019-02-23T05:43:01.680Z,-3.3
2019-02-23T05:44:08.880Z,-3.3
2019-02-23T05:45:16.084Z,-3.3
2019-02-23T05:46:23.000Z,-3.3
2019-02-23T05:47:30.191Z,-3.3
2019-02-23T05:48:37.392Z,-3.3
2019-02-23T05:49:44.590Z,-3.3
2019-02-23T05:50:51.782Z,-3.3
2019-02-23T05:51:58.998Z,-3.3
2019-02-23T05:53:06.188Z,-3.4
2019-02-23T05:54:13.396Z,-3.4
2019-02-23T05:55:20.315Z,-3.3
2019-02-23T05:56:27.510Z,-3.4
2019-02-23T05:57:34.433Z,-3.4
2019-02-23T05:58:41.643Z,-3.5
2019-02-23T05:59:48.828Z,-3.4
2019-02-23T06:00:56.017Z,-3.5
2019-02-23T06:02:03.213Z,-3.5
2019-02-23T06:03:10.174Z,-3.6
2019-02-23T06:04:17.363Z,-3.5
2019-02-23T06:05:24.556Z,-3.5
2019-02-23T06:06:31.475Z,-3.5
2019-02-23T06:07:38.389Z,-3.5
2019-02-23T06:08:45.313Z,-3.5
2019-02-23T06:09:52.504Z,-3.6
2019-02-23T06:10:59.692Z,-3.5
2019-02-23T06:12:06.610Z,-3.5
2019-02-23T06:13:28.450Z,-3.5
2019-02-23T06:14:35.394Z,-3.6
2019-02-23T06:15:42.582Z,-3.6
2019-02-23T06:16:49.501Z,-3.6
2019-02-23T06:17:56.696Z,-3.6
2019-02-23T06:19:03.615Z,-3.6
2019-02-23T06:20:10.821Z,-3.6
2019-02-23T06:21:18.021Z,-3.6
2019-02-23T06:22:25.205Z,-3.5
2019-02-23T06:23:32.390Z,-3.6
2019-02-23T06:24:39.577Z,-3.6
2019-02-23T06:25:46.490Z,-3.5
2019-02-23T06:26:53.684Z,-3.6
2019-02-23T06:28:00.878Z,-3.7
2019-02-23T06:29:08.074Z,-3.7
2019-02-23T06:30:18.307Z,-3.8
2019-02-23T06:31:25.601Z,-3.7
2019-02-23T06:32:32.793Z,-3.6
2019-02-23T06:33:39.976Z,-3.6
2019-02-23T06:34:46.902Z,-3.5
2019-02-23T06:35:53.822Z,-3.5
2019-02-23T06:37:01.011Z,-3.5
2019-02-23T06:38:08.203Z,-3.5
2019-02-23T06:39:15.122Z,-3.4
2019-02-23T06:40:22.311Z,-3.4
2019-02-23T06:41:29.229Z,-3.4
2019-02-23T06:42:36.420Z,-3.3
2019-02-23T06:43:43.615Z,-3.3
2019-02-23T06:44:50.539Z,-3.3
2019-02-23T06:45:56.918Z,-3.3
2019-02-23T06:47:04.110Z,-3.3
2019-02-23T06:48:11.300Z,-3.3
2019-02-23T06:49:18.490Z,-3.3
2019-02-23T06:50:25.680Z,-3.2
2019-02-23T06:51:32.873Z,-3.1
2019-02-23T06:52:40.066Z,-3.1
2019-02-23T06:53:47.258Z,-3.2
2019-02-23T06:54:54.457Z,-3.1
2019-02-23T06:56:01.649Z,-3.1
2019-02-23T06:57:08.842Z,-3
2019-02-23T06:58:15.827Z,-2.9
2019-02-23T06:59:23.021Z,-2.8
2019-02-23T07:00:30.212Z,-2.8
2019-02-23T07:01:37.406Z,-2.7
2019-02-23T07:02:44.330Z,-2.6
2019-02-23T07:03:51.521Z,-2.5
2019-02-23T07:04:58.448Z,-2.4
2019-02-23T07:06:05.637Z,-2.4
2019-02-23T07:07:12.832Z,-2.3
2019-02-23T07:08:20.038Z,-2.3
2019-02-23T07:09:27.230Z,-2.2
2019-02-23T07:10:34.423Z,-2.1
2019-02-23T07:11:41.622Z,-2.1
2019-02-23T07:12:48.835Z,-2
2019-02-23T07:13:56.011Z,-1.9
2019-02-23T07:15:03.199Z,-1.9
2019-02-23T07:16:10.398Z,-1.9
2019-02-23T07:17:17.309Z,-1.8
2019-02-23T07:18:24.507Z,-1.8
2019-02-23T07:19:31.421Z,-1.8
2019-02-23T07:20:44.969Z,-1.8
2019-02-23T07:21:52.170Z,-1.8
2019-02-23T07:22:59.091Z,-1.7
2019-02-23T07:24:06.285Z,-1.6
2019-02-23T07:25:13.475Z,-1.5
2019-02-23T07:26:20.733Z,-1.5
2019-02-23T07:27:27.929Z,-1.4
2019-02-23T07:28:35.121Z,-1.3
2019-02-23T07:29:42.315Z,-1.2
2019-02-23T07:30:49.508Z,-1.2
2019-02-23T07:31:56.701Z,-1.1
2019-02-23T07:33:03.891Z,-1
2019-02-23T07:34:10.814Z,-0.9
2019-02-23T07:35:18.074Z,-0.9
2019-02-23T07:36:25.261Z,-0.9
2019-02-23T07:37:32.455Z,-0.9
2019-02-23T07:38:39.642Z,-0.9
2019-02-23T07:39:46.558Z,-0.8
2019-02-23T07:40:53.752Z,-0.8
2019-02-23T07:42:00.943Z,-0.8
2019-02-23T07:43:08.130Z,-0.7
2019-02-23T07:44:15.331Z,-0.7
2019-02-23T07:45:22.526Z,-0.7
2019-02-23T07:46:29.721Z,-0.6
2019-02-23T07:47:36.644Z,-0.6
2019-02-23T07:48:43.837Z,-0.6
2019-02-23T07:49:51.031Z,-0.6
2019-02-23T07:50:58.219Z,-0.6
2019-02-23T07:52:05.412Z,-0.6
2019-02-23T07:53:12.614Z,-0.5
2019-02-23T07:54:19.252Z,-0.5
2019-02-23T07:55:26.447Z,-0.4
2019-02-23T07:56:35.622Z,-0.3
2019-02-23T07:57:42.812Z,-0.3
2019-02-23T07:58:50.016Z,-0.3
2019-02-23T07:59:57.229Z,-0.2
2019-02-23T08:01:04.418Z,-0.2
2019-02-23T08:02:11.612Z,-0.1
2019-02-23T08:03:18.806Z,-0.1
2019-02-23T08:04:25.997Z,0
2019-02-23T08:05:33.187Z,0
2019-02-23T08:06:40.181Z,0.1
2019-02-23T08:07:46.819Z,0.1
2019-02-23T08:08:54.013Z,0
2019-02-23T08:10:00.934Z,0.1
2019-02-23T08:11:08.136Z,0.2
2019-02-23T08:12:15.324Z,0.3
2019-02-23T08:13:22.523Z,0.4
2019-02-23T08:14:29.714Z,0.4
2019-02-23T08:15:36.911Z,0.5
2019-02-23T08:16:44.100Z,0.6
2019-02-23T08:17:51.297Z,0.6
2019-02-23T08:18:59.721Z,0.7
2019-02-23T08:20:06.374Z,0.8
2019-02-23T08:21:13.567Z,0.8
2019-02-23T08:22:20.489Z,0.8
2019-02-23T08:23:27.686Z,0.8
2019-02-23T08:24:34.878Z,0.8
2019-02-23T08:25:42.068Z,0.8
2019-02-23T08:26:49.261Z,1
2019-02-23T08:27:56.454Z,1.1
2019-02-23T08:29:03.372Z,1.1
2019-02-23T08:30:10.566Z,1.2
2019-02-23T08:31:17.488Z,1.3
2019-02-23T08:32:24.683Z,1.3
2019-02-23T08:33:31.606Z,1.4
2019-02-23T08:34:38.799Z,1.5
2019-02-23T08:35:46.197Z,1.5
2019-02-23T08:36:53.393Z,1.5
2019-02-23T08:38:00.580Z,1.5
2019-02-23T08:39:07.245Z,1.6
2019-02-23T08:40:14.179Z,1.6
2019-02-23T08:41:21.368Z,1.6
2019-02-23T08:42:28.569Z,1.7
2019-02-23T08:43:35.777Z,1.8
2019-02-23T08:44:42.975Z,1.8
2019-02-23T08:45:49.893Z,1.9
2019-02-23T08:46:57.088Z,2
2019-02-23T08:48:04.287Z,1.9
2019-02-23T08:49:11.221Z,1.7
2019-02-23T08:50:18.420Z,1.7
2019-02-23T08:51:25.617Z,1.8
2019-02-23T08:52:32.814Z,2
2019-02-23T08:53:40.008Z,2.1
2019-02-23T08:54:47.194Z,2.2
2019-02-23T08:55:54.389Z,2.2
2019-02-23T08:57:01.582Z,2
2019-02-23T08:58:08.506Z,1.9
2019-02-23T08:59:15.700Z,1.8
2019-02-23T09:00:22.891Z,1.7
2019-02-23T09:01:30.085Z,1.9
2019-02-23T09:02:37.280Z,2.2
2019-02-23T09:03:44.201Z,2.3
2019-02-23T09:04:51.123Z,2.4
2019-02-23T09:05:58.317Z,2.4
2019-02-23T09:07:05.508Z,2.5
2019-02-23T09:08:12.709Z,2.6
2019-02-23T09:09:19.902Z,2.7
2019-02-23T09:10:27.113Z,2.8
2019-02-23T09:11:34.305Z,2.7
2019-02-23T09:12:41.219Z,2.7
2019-02-23T09:13:48.411Z,2.8
2019-02-23T09:14:55.618Z,2.9
2019-02-23T09:16:02.805Z,3
2019-02-23T09:17:10.000Z,3.1
2019-02-23T09:18:17.195Z,3
2019-02-23T09:19:24.394Z,2.9
2019-02-23T09:20:31.049Z,3.1
2019-02-23T09:21:38.244Z,3.2
2019-02-23T09:22:45.441Z,3.3
2019-02-23T09:23:52.636Z,3.2
2019-02-23T09:24:59.831Z,3.3
2019-02-23T09:26:06.771Z,3.4
2019-02-23T09:27:13.970Z,3.6
2019-02-23T09:28:20.894Z,3.6
2019-02-23T09:29:28.084Z,3.6
2019-02-23T09:30:35.086Z,3.6
2019-02-23T09:31:42.265Z,3.3
2019-02-23T09:32:49.464Z,3.1
2019-02-23T09:33:56.381Z,3.2
2019-02-23T09:35:03.586Z,3.1
2019-02-23T09:36:10.780Z,3.1
2019-02-23T09:37:17.972Z,3.2
2019-02-23T09:38:25.163Z,3.4
2019-02-23T09:39:32.364Z,3.5
2019-02-23T09:40:39.560Z,3.6
2019-02-23T09:41:46.760Z,3.7
2019-02-23T09:42:53.957Z,3.6
2019-02-23T09:44:01.159Z,3.6
2019-02-23T09:45:08.350Z,3.8
2019-02-23T09:46:15.543Z,4
2019-02-23T09:47:22.464Z,4.2
2019-02-23T09:48:29.661Z,4.3
2019-02-23T09:49:36.318Z,4.3
2019-02-23T09:50:43.513Z,4.5
2019-02-23T09:51:50.715Z,4.5
2019-02-23T09:52:57.916Z,4.6
2019-02-23T09:54:05.107Z,4.5
2019-02-23T09:55:12.026Z,3.9
2019-02-23T09:56:19.219Z,3.8
2019-02-23T09:57:26.143Z,4
2019-02-23T09:58:33.345Z,4.2
2019-02-23T09:59:40.838Z,4.5
2019-02-23T10:00:48.035Z,4.6
2019-02-23T10:01:54.962Z,4.6
2019-02-23T10:03:02.162Z,4.7
2019-02-23T10:04:09.357Z,4.7
2019-02-23T10:05:16.566Z,4.9
2019-02-23T10:06:23.760Z,5.1
2019-02-23T10:07:30.985Z,5.3
2019-02-23T10:08:38.196Z,5.4
2019-02-23T10:09:45.395Z,5.4
2019-02-23T10:10:52.587Z,5.3
2019-02-23T10:11:59.783Z,5.3
2019-02-23T10:13:06.986Z,5.1
2019-02-23T10:14:14.173Z,5
2019-02-23T10:15:21.369Z,5.1
2019-02-23T10:16:28.301Z,5.2
2019-02-23T10:17:35.232Z,5.2
2019-02-23T10:18:42.444Z,5.3
2019-02-23T10:19:49.630Z,5.2
2019-02-23T10:20:56.829Z,5.2
2019-02-23T10:22:04.026Z,5.1
2019-02-23T10:23:22.524Z,5.2
2019-02-23T10:24:29.735Z,5.2
2019-02-23T10:25:36.935Z,5.3
2019-02-23T10:26:43.914Z,5.3
2019-02-23T10:27:50.840Z,5.3
2019-02-23T10:28:58.028Z,5.2
2019-02-23T10:30:05.231Z,5.3
2019-02-23T10:31:12.423Z,5.5
2019-02-23T10:32:19.624Z,5.7
2019-02-23T10:33:26.547Z,5.5
2019-02-23T10:34:33.470Z,5.4
2019-02-23T10:35:40.675Z,5.2
2019-02-23T10:36:47.875Z,5.2
2019-02-23T10:37:55.072Z,5.3
2019-02-23T10:39:02.268Z,5.4
2019-02-23T10:40:09.462Z,5.6
2019-02-23T10:41:16.389Z,5.7
2019-02-23T10:42:23.586Z,5.8
2019-02-23T10:43:30.781Z,5.8
2019-02-23T10:44:37.984Z,5.8
2019-02-23T10:45:44.907Z,5.7
2019-02-23T10:46:51.561Z,5.7
2019-02-23T10:47:58.764Z,5.5
2019-02-23T10:49:05.962Z,5.4
2019-02-23T10:50:13.162Z,5.5
2019-02-23T10:51:19.807Z,5.7
2019-02-23T10:52:26.740Z,5.8
2019-02-23T10:53:33.744Z,5.9
2019-02-23T10:54:40.668Z,5.9
2019-02-23T10:55:47.883Z,5.9
2019-02-23T10:56:55.086Z,6
2019-02-23T10:58:02.278Z,6.1
2019-02-23T10:59:09.201Z,6.2
2019-02-23T11:00:16.456Z,6.4
2019-02-23T11:01:23.643Z,6.6
2019-02-23T11:02:30.842Z,6.5
2019-02-23T11:03:37.765Z,6.4
2019-02-23T11:04:44.965Z,6.2
2019-02-23T11:05:52.171Z,6.2
2019-02-23T11:06:59.367Z,6.3
2019-02-23T11:08:06.570Z,6.6
2019-02-23T11:09:13.768Z,6.8
2019-02-23T11:10:20.971Z,6.8
2019-02-23T11:11:28.168Z,6.9
2019-02-23T11:12:35.365Z,7
2019-02-23T11:13:42.571Z,6.8
2019-02-23T11:14:49.772Z,6.8
2019-02-23T11:15:56.976Z,6.6
2019-02-23T11:17:04.174Z,6.6
2019-02-23T11:18:11.095Z,6.5
2019-02-23T11:19:18.017Z,6.6
2019-02-23T11:20:25.218Z,6.8
2019-02-23T11:21:32.436Z,6.9
2019-02-23T11:22:39.360Z,6.8
2019-02-23T11:23:46.286Z,7
2019-02-23T11:24:52.935Z,7.1
2019-02-23T11:26:00.135Z,7.2
2019-02-23T11:27:07.342Z,7.1
2019-02-23T11:28:14.581Z,7
2019-02-23T11:29:21.783Z,7.1
2019-02-23T11:30:28.742Z,6.9
2019-02-23T11:31:35.943Z,7
2019-02-23T11:32:43.135Z,7.1
2019-02-23T11:33:50.778Z,7.3
2019-02-23T11:34:57.969Z,7.4
2019-02-23T11:36:05.169Z,7.6
2019-02-23T11:37:12.093Z,7.6
2019-02-23T11:38:19.300Z,7.6
2019-02-23T11:39:25.953Z,7.4
2019-02-23T11:40:33.153Z,7.4
2019-02-23T11:41:40.075Z,7.7
2019-02-23T11:42:47.289Z,7.8
2019-02-23T11:43:54.501Z,7.8
2019-02-23T11:45:01.698Z,7.5
2019-02-23T11:46:08.910Z,7.6
2019-02-23T11:47:16.111Z,7.8
2019-02-23T11:48:23.313Z,8.1
2019-02-23T11:49:30.241Z,8.2
2019-02-23T11:50:37.449Z,8.4
2019-02-23T11:51:44.659Z,8.4
2019-02-23T11:52:51.580Z,8
2019-02-23T11:53:58.835Z,7.8
2019-02-23T11:55:06.036Z,7.7
2019-02-23T11:56:12.965Z,7.6
2019-02-23T11:57:20.166Z,7.5
2019-02-23T11:58:27.368Z,7.4
2019-02-23T11:59:34.569Z,7.3
2019-02-23T12:00:41.775Z,7.4
2019-02-23T12:01:48.970Z,7.4
2019-02-23T12:02:56.179Z,7.5
2019-02-23T12:04:03.110Z,7.6
2019-02-23T12:05:10.046Z,7.7
2019-02-23T12:06:16.974Z,7.7
2019-02-23T12:07:24.179Z,7.9
2019-02-23T12:08:31.111Z,7.8
2019-02-23T12:09:38.050Z,7.9
2019-02-23T12:10:45.251Z,8
2019-02-23T12:11:52.457Z,8
2019-02-23T12:12:59.655Z,8.2
2019-02-23T12:14:06.867Z,8.2
2019-02-23T12:15:13.790Z,8.1
2019-02-23T12:16:20.727Z,8.2
2019-02-23T12:17:27.932Z,8.4
2019-02-23T12:18:35.162Z,8.6
2019-02-23T12:19:42.353Z,8.2
2019-02-23T12:20:49.292Z,8.2
2019-02-23T12:21:56.510Z,8.4
2019-02-23T12:23:03.710Z,8.5
2019-02-23T12:24:10.919Z,8.4
2019-02-23T12:25:18.122Z,8.3
2019-02-23T12:26:25.326Z,8.1
2019-02-23T12:27:32.252Z,8.4
2019-02-23T12:28:39.470Z,8.6
2019-02-23T12:29:46.678Z,8.7
2019-02-23T12:30:53.882Z,8.8
2019-02-23T12:32:01.090Z,9
2019-02-23T12:33:08.292Z,8.7
2019-02-23T12:34:15.493Z,8.5
2019-02-23T12:35:22.697Z,8.3
2019-02-23T12:36:29.901Z,8.4
2019-02-23T12:37:51.753Z,8.6
2019-02-23T12:38:58.416Z,8.7
2019-02-23T12:40:05.349Z,8.8
2019-02-23T12:41:12.555Z,8.9
2019-02-23T12:42:19.758Z,8.9
2019-02-23T12:43:26.688Z,9
2019-02-23T12:44:33.624Z,9
2019-02-23T12:45:40.836Z,8.7
2019-02-23T12:46:47.767Z,8.8
2019-02-23T12:47:54.996Z,8.8
2019-02-23T12:49:02.189Z,9
2019-02-23T12:50:09.401Z,9
2019-02-23T12:51:16.341Z,8.8
2019-02-23T12:52:23.545Z,8.9
2019-02-23T12:53:30.759Z,8.8
2019-02-23T12:54:37.966Z,8.9
2019-02-23T12:55:45.174Z,9
2019-02-23T12:56:52.383Z,9
2019-02-23T12:57:59.305Z,9.2
2019-02-23T12:59:06.517Z,9.5
2019-02-23T13:00:13.717Z,9.5
2019-02-23T13:01:20.929Z,9.3
2019-02-23T13:02:27.576Z,9
2019-02-23T13:03:34.771Z,9
2019-02-23T13:04:41.974Z,9.3
2019-02-23T13:05:49.219Z,8.9
2019-02-23T13:06:56.427Z,8.6
2019-02-23T13:08:03.626Z,8.6
2019-02-23T13:09:10.824Z,8.8
2019-02-23T13:10:18.035Z,9
2019-02-23T13:11:25.236Z,9.3
2019-02-23T13:12:32.448Z,9.2
2019-02-23T13:13:39.658Z,9.2
2019-02-23T13:14:46.320Z,9.3
2019-02-23T13:15:53.520Z,9.5
2019-02-23T13:17:00.452Z,9.6
2019-02-23T13:18:07.656Z,9.7
2019-02-23T13:19:14.870Z,9.7
2019-02-23T13:20:22.080Z,9.3
2019-02-23T13:21:29.338Z,8.9
2019-02-23T13:22:36.541Z,9
2019-02-23T13:23:43.755Z,9.1
2019-02-23T13:24:51.014Z,9.1
2019-02-23T13:25:58.219Z,8.9
2019-02-23T13:27:05.421Z,8.8
2019-02-23T13:28:12.633Z,8.9
2019-02-23T13:29:19.565Z,9.1
2019-02-23T13:30:26.775Z,9.2
2019-02-23T13:31:33.716Z,9.2
2019-02-23T13:32:40.928Z,9.1
2019-02-23T13:33:48.136Z,9.2
2019-02-23T13:34:55.062Z,9.1
2019-02-23T13:36:02.271Z,9.1
2019-02-23T13:37:09.474Z,9
2019-02-23T13:38:16.684Z,8.9
2019-02-23T13:39:23.898Z,8.8
2019-02-23T13:40:30.830Z,8.9
2019-02-23T13:41:52.687Z,8.8
2019-02-23T13:42:59.888Z,8.7
2019-02-23T13:44:07.093Z,8.6
2019-02-23T13:45:14.299Z,8.6
2019-02-23T13:46:21.508Z,8.6
2019-02-23T13:47:28.717Z,8.7
2019-02-23T13:48:35.926Z,8.2
2019-02-23T13:49:43.128Z,8.4
2019-02-23T13:50:50.330Z,8.5
2019-02-23T13:51:57.002Z,8.7
2019-02-23T13:53:04.202Z,9
2019-02-23T13:54:11.408Z,9.1
2019-02-23T13:55:18.617Z,9.2
2019-02-23T13:56:25.819Z,9.1
2019-02-23T13:57:33.027Z,8.6
2019-02-23T13:58:40.235Z,8.6
2019-02-23T13:59:47.432Z,8.8
2019-02-23T14:00:54.637Z,9
2019-02-23T14:02:01.841Z,9.1
2019-02-23T14:03:08.780Z,8.9
2019-02-23T14:04:16.007Z,8.9
2019-02-23T14:05:22.947Z,8.6
2019-02-23T14:06:29.887Z,8.6
2019-02-23T14:07:37.091Z,8.6
2019-02-23T14:08:44.351Z,8.5
2019-02-23T14:09:51.559Z,8.5
2019-02-23T14:10:58.488Z,8.6
2019-02-23T14:12:05.690Z,8.4
2019-02-23T14:13:12.894Z,8.3
2019-02-23T14:14:20.097Z,8.5
2019-02-23T14:15:27.292Z,8.7
2019-02-23T14:16:33.955Z,8.9
2019-02-23T14:17:41.160Z,8.8
2019-02-23T14:18:48.362Z,8.7
2019-02-23T14:19:55.568Z,8.6
2019-02-23T14:21:02.772Z,8.5
2019-02-23T14:22:09.984Z,8.5
2019-02-23T14:23:17.171Z,8.4
2019-02-23T14:24:24.378Z,8.2
2019-02-23T14:25:31.327Z,8.1
2019-02-23T14:26:38.533Z,8.3
2019-02-23T14:27:45.738Z,8.4
2019-02-23T14:28:52.665Z,8.6
2019-02-23T14:29:59.890Z,8.8
2019-02-23T14:31:07.087Z,8.9
2019-02-23T14:32:14.290Z,8.9
2019-02-23T14:33:21.497Z,9
2019-02-23T14:34:28.431Z,9.1
2019-02-23T14:35:35.651Z,8.9
2019-02-23T14:36:57.503Z,8.9
2019-02-23T14:38:04.507Z,8.9
2019-02-23T14:39:13.643Z,8.8
2019-02-23T14:40:20.974Z,8.7
2019-02-23T14:41:28.197Z,8.4
2019-02-23T14:42:35.433Z,8.4
2019-02-23T14:43:42.651Z,8.5
2019-02-23T14:44:49.929Z,8.6
2019-02-23T14:45:57.217Z,8.5
2019-02-23T14:47:04.452Z,8.5
2019-02-23T14:48:11.669Z,8.5
2019-02-23T14:49:18.876Z,8.6
2019-02-23T14:50:26.077Z,8.7
2019-02-23T14:51:33.279Z,8.7
2019-02-23T14:52:40.222Z,8.7
2019-02-23T14:53:47.177Z,8.7
2019-02-23T14:55:01.643Z,8.7
2019-02-23T14:56:09.023Z,8.8
2019-02-23T14:57:16.211Z,8.7
2019-02-23T14:58:23.149Z,8.6
2019-02-23T14:59:30.352Z,8.6
2019-02-23T15:00:37.559Z,8.6
2019-02-23T15:01:44.755Z,8.6
2019-02-23T15:02:51.961Z,8.5
2019-02-23T15:03:58.886Z,8.4
2019-02-23T15:05:06.091Z,8.2
2019-02-23T15:06:13.298Z,8.1
2019-02-23T15:07:20.503Z,8.2
2019-02-23T15:08:27.781Z,8.2
2019-02-23T15:09:34.967Z,8.3
2019-02-23T15:10:42.176Z,8.3
2019-02-23T15:11:49.376Z,8.3
2019-02-23T15:12:56.308Z,8.3
2019-02-23T15:14:03.513Z,8.4
2019-02-23T15:15:10.713Z,8.4
2019-02-23T15:16:18.098Z,8.4
2019-02-23T15:17:25.297Z,8.2